sensor_id;sensor_type;location;lat;lon;timestamp;pressure;altitude;pressure_sealevel;temperature;humidity
71194;BME280;58903;47.210;8.618;2023-04-22T00:00:51;93619.59;;;26.58;41.18
71194;BME280;58903;47.210;8.618;2023-04-22T00:03:38;93601.78;;;26.59;40.88
71194;BME280;58903;47.210;8.618;2023-04-22T00:06:25;93604.53;;;26.59;40.62
71194;BME280;58903;47.210;8.618;2023-04-22T00:08:53;93604.53;;;26.59;41.38
71194;BME280;58903;47.210;8.618;2023-04-22T00:11:32;93602.31;;;26.58;40.87
71194;BME280;58903;47.210;8.618;2023-04-22T00:14:18;93602.31;;;26.58;41.25
71194;BME280;58903;47.210;8.618;2023-04-22T00:17:17;93598.81;;;26.57;40.96
71194;BME280;58903;47.210;8.618;2023-04-22T00:19:59;93584.84;;;26.55;41.00
71194;BME280;58903;47.210;8.618;2023-04-22T00:23:02;93590.00;;;26.59;41.08
71194;BME280;58903;47.210;8.618;2023-04-22T00:25:30;93583.53;;;26.56;40.87
71194;BME280;58903;47.210;8.618;2023-04-22T00:28:00;93580.03;;;26.56;41.31
71194;BME280;58903;47.210;8.618;2023-04-22T00:31:02;93585.75;;;26.58;40.94
71194;BME280;58903;47.210;8.618;2023-04-22T00:33:48;93576.97;;;26.59;40.89
71194;BME280;58903;47.210;8.618;2023-04-22T00:36:15;93579.31;;;26.55;41.39
71194;BME280;58903;47.210;8.618;2023-04-22T00:39:03;93575.25;;;26.56;40.85
71194;BME280;58903;47.210;8.618;2023-04-22T00:41:34;93568.81;;;26.54;40.84
71194;BME280;58903;47.210;8.618;2023-04-22T00:44:17;93579.31;;;26.55;40.55
71194;BME280;58903;47.210;8.618;2023-04-22T00:47:01;93582.06;;;26.55;41.41
71194;BME280;58903;47.210;8.618;2023-04-22T00:49:34;93582.78;;;26.56;41.46
71194;BME280;58903;47.210;8.618;2023-04-22T00:52:14;93584.09;;;26.55;40.82
71194;BME280;58903;47.210;8.618;2023-04-22T00:54:43;93585.03;;;26.57;40.78
71194;BME280;58903;47.210;8.618;2023-04-22T00:57:31;93584.09;;;26.55;40.96
71194;BME280;58903;47.210;8.618;2023-04-22T01:00:23;93584.63;;;26.53;41.15
71194;BME280;58903;47.210;8.618;2023-04-22T01:02:56;93593.09;;;26.55;41.52
71194;BME280;58903;47.210;8.618;2023-04-22T01:05:35;93585.34;;;26.54;41.15
71194;BME280;58903;47.210;8.618;2023-04-22T01:08:20;93579.84;;;26.54;40.90
71194;BME280;58903;47.210;8.618;2023-04-22T01:11:02;93581.00;;;26.58;41.29
71194;BME280;58903;47.210;8.618;2023-04-22T01:13:34;93579.19;;;26.61;41.00
71194;BME280;58903;47.210;8.618;2023-04-22T01:16:09;93568.88;;;26.61;41.07
71194;BME280;58903;47.210;8.618;2023-04-22T01:18:48;93563.56;;;26.63;40.48
71194;BME280;58903;47.210;8.618;2023-04-22T01:21:15;93560.28;;;26.65;40.93
71194;BME280;58903;47.210;8.618;2023-04-22T01:23:50;93572.59;;;26.64;40.84
71194;BME280;58903;47.210;8.618;2023-04-22T01:26:35;93574.81;;;26.65;40.75
71194;BME280;58903;47.210;8.618;2023-04-22T01:29:15;93578.13;;;26.64;40.84
71194;BME280;58903;47.210;8.618;2023-04-22T01:31:43;93584.16;;;26.62;40.71
71194;BME280;58903;47.210;8.618;2023-04-22T01:34:15;93582.13;;;26.63;40.77
71194;BME280;58903;47.210;8.618;2023-04-22T01:36:50;93580.66;;;26.62;40.95
71194;BME280;58903;47.210;8.618;2023-04-22T01:39:16;93578.84;;;26.64;40.49
71194;BME280;58903;47.210;8.618;2023-04-22T01:41:54;93580.88;;;26.64;40.39
71194;BME280;58903;47.210;8.618;2023-04-22T01:44:24;93585.97;;;26.60;40.91
71194;BME280;58903;47.210;8.618;2023-04-22T01:46:52;93578.63;;;26.62;40.59
71194;BME280;58903;47.210;8.618;2023-04-22T01:49:27;93579.19;;;26.61;40.70
71194;BME280;58903;47.210;8.618;2023-04-22T01:52:08;93574.94;;;26.60;41.07
71194;BME280;58903;47.210;8.618;2023-04-22T01:54:34;93587.25;;;26.59;41.20
71194;BME280;58903;47.210;8.618;2023-04-22T01:57:09;93582.69;;;26.61;40.61
71194;BME280;58903;47.210;8.618;2023-04-22T01:59:39;93582.13;;;26.63;40.53
71194;BME280;58903;47.210;8.618;2023-04-22T02:02:07;93597.94;;;26.62;41.05
71194;BME280;58903;47.210;8.618;2023-04-22T02:05:00;93594.66;;;26.64;40.34
71194;BME280;58903;47.210;8.618;2023-04-22T02:07:41;93594.47;;;26.62;41.30
71194;BME280;58903;47.210;8.618;2023-04-22T02:10:08;93590.00;;;26.59;40.96
71194;BME280;58903;47.210;8.618;2023-04-22T02:13:07;93591.28;;;26.58;40.93
71194;BME280;58903;47.210;8.618;2023-04-22T02:15:43;93586.09;;;26.54;41.10
71194;BME280;58903;47.210;8.618;2023-04-22T02:18:15;93594.91;;;26.53;40.75
71194;BME280;58903;47.210;8.618;2023-04-22T02:24:02;93598.53;;;26.48;40.95
71194;BME280;58903;47.210;8.618;2023-04-22T02:26:31;93596.31;;;26.46;40.88
71194;BME280;58903;47.210;8.618;2023-04-22T02:28:57;93596.84;;;26.45;40.80
71194;BME280;58903;47.210;8.618;2023-04-22T02:31:28;93597.06;;;26.47;40.67
71194;BME280;58903;47.210;8.618;2023-04-22T02:33:54;93599.06;;;26.46;40.36
71194;BME280;58903;47.210;8.618;2023-04-22T02:36:22;93603.09;;;26.45;40.59
71194;BME280;58903;47.210;8.618;2023-04-22T02:38:58;93596.84;;;26.45;41.02
71194;BME280;58903;47.210;8.618;2023-04-22T02:41:43;93594.06;;;26.45;41.11
71194;BME280;58903;47.210;8.618;2023-04-22T02:44:39;93598.31;;;26.46;41.09
71194;BME280;58903;47.210;8.618;2023-04-22T02:47:22;93593.56;;;26.46;41.31
71194;BME280;58903;47.210;8.618;2023-04-22T02:49:50;93599.59;;;26.45;41.33
71194;BME280;58903;47.210;8.618;2023-04-22T02:52:17;93596.63;;;26.43;40.91
71194;BME280;58903;47.210;8.618;2023-04-22T02:54:43;93596.63;;;26.43;40.76
71194;BME280;58903;47.210;8.618;2023-04-22T02:57:09;93593.34;;;26.44;41.45
71194;BME280;58903;47.210;8.618;2023-04-22T02:59:55;93602.88;;;26.43;41.31
71194;BME280;58903;47.210;8.618;2023-04-22T03:02:39;93610.41;;;26.43;40.74
71194;BME280;58903;47.210;8.618;2023-04-22T03:05:08;93608.94;;;26.42;41.31
71194;BME280;58903;47.210;8.618;2023-04-22T03:07:37;93611.69;;;26.42;41.30
71194;BME280;58903;47.210;8.618;2023-04-22T03:10:08;93610.41;;;26.43;41.02
71194;BME280;58903;47.210;8.618;2023-04-22T03:12:34;93609.69;;;26.42;40.80
71194;BME280;58903;47.210;8.618;2023-04-22T03:15:03;93603.03;;;26.38;40.53
71194;BME280;58903;47.210;8.618;2023-04-22T03:17:31;93616.88;;;26.45;40.93
71194;BME280;58903;47.210;8.618;2023-04-22T03:20:04;93610.41;;;26.43;40.87
71194;BME280;58903;47.210;8.618;2023-04-22T03:22:33;93614.47;;;26.42;41.07
71194;BME280;58903;47.210;8.618;2023-04-22T03:25:06;93611.91;;;26.44;40.99
71194;BME280;58903;47.210;8.618;2023-04-22T03:27:32;93616.13;;;26.45;41.14
71194;BME280;58903;47.210;8.618;2023-04-22T03:30:01;93606.72;;;26.40;41.47
71194;BME280;58903;47.210;8.618;2023-04-22T03:32:27;93608.94;;;26.42;41.37
71194;BME280;58903;47.210;8.618;2023-04-22T03:34:55;93615.41;;;26.44;41.05
71194;BME280;58903;47.210;8.618;2023-04-22T03:37:21;93611.91;;;26.44;40.64
71194;BME280;58903;47.210;8.618;2023-04-22T03:39:47;93612.44;;;26.42;40.58
71194;BME280;58903;47.210;8.618;2023-04-22T03:42:13;93618.16;;;26.44;40.69
71194;BME280;58903;47.210;8.618;2023-04-22T03:44:40;93616.88;;;26.45;41.26
71194;BME280;58903;47.210;8.618;2023-04-22T03:47:06;93618.88;;;26.45;40.49
71194;BME280;58903;47.210;8.618;2023-04-22T03:49:32;93627.16;;;26.45;40.51
71194;BME280;58903;47.210;8.618;2023-04-22T03:52:00;93620.72;;;26.42;41.14
71194;BME280;58903;47.210;8.618;2023-04-22T03:54:27;93632.69;;;26.45;40.55
71194;BME280;58903;47.210;8.618;2023-04-22T03:56:53;93631.97;;;26.44;40.58
71194;BME280;58903;47.210;8.618;2023-04-22T03:59:21;93629.91;;;26.45;40.98
71194;BME280;58903;47.210;8.618;2023-04-22T04:01:53;93624.19;;;26.43;40.92
71194;BME280;58903;47.210;8.618;2023-04-22T04:04:22;93632.47;;;26.43;40.74
71194;BME280;58903;47.210;8.618;2023-04-22T04:06:52;93635.22;;;26.43;41.03
71194;BME280;58903;47.210;8.618;2023-04-22T04:09:34;93632.06;;;26.39;40.89
71194;BME280;58903;47.210;8.618;2023-04-22T04:12:10;93641.09;;;26.39;41.53
71194;BME280;58903;47.210;8.618;2023-04-22T04:14:46;93639.81;;;26.40;41.70
71194;BME280;58903;47.210;8.618;2023-04-22T04:17:28;93639.59;;;26.38;40.75
71194;BME280;58903;47.210;8.618;2023-04-22T04:20:09;93650.84;;;26.40;41.29
71194;BME280;58903;47.210;8.618;2023-04-22T04:22:35;93654.13;;;26.39;40.65
71194;BME280;58903;47.210;8.618;2023-04-22T04:25:06;93644.38;;;26.38;41.00
71194;BME280;58903;47.210;8.618;2023-04-22T04:27:33;93645.84;;;26.39;40.62
71194;BME280;58903;47.210;8.618;2023-04-22T04:29:59;93640.34;;;26.39;40.70
71194;BME280;58903;47.210;8.618;2023-04-22T04:32:27;93645.84;;;26.39;41.46
71194;BME280;58903;47.210;8.618;2023-04-22T04:34:53;93649.91;;;26.38;40.76
71194;BME280;58903;47.210;8.618;2023-04-22T04:37:19;93647.66;;;26.36;41.21
71194;BME280;58903;47.210;8.618;2023-04-22T04:39:47;93651.16;;;26.37;41.50
71194;BME280;58903;47.210;8.618;2023-04-22T04:42:19;93652.75;;;26.32;41.59
71194;BME280;58903;47.210;8.618;2023-04-22T04:45:05;93643.44;;;26.35;40.99
71194;BME280;58903;47.210;8.618;2023-04-22T04:47:53;93643.97;;;26.34;41.56
71194;BME280;58903;47.210;8.618;2023-04-22T04:50:25;93636.41;;;26.34;41.18
71194;BME280;58903;47.210;8.618;2023-04-22T04:52:52;93641.00;;;26.32;40.98
71194;BME280;58903;47.210;8.618;2023-04-22T04:55:29;93654.56;;;26.30;41.22
71194;BME280;58903;47.210;8.618;2023-04-22T04:57:56;93645.38;;;26.27;41.16
71194;BME280;58903;47.210;8.618;2023-04-22T05:00:31;93657.09;;;26.28;41.32
71194;BME280;58903;47.210;8.618;2023-04-22T05:03:05;93666.47;;;26.25;41.33
71194;BME280;58903;47.210;8.618;2023-04-22T05:06:03;93655.31;;;26.30;41.26
71194;BME280;58903;47.210;8.618;2023-04-22T05:08:49;93656.59;;;26.29;41.68
71194;BME280;58903;47.210;8.618;2023-04-22T05:11:17;93655.66;;;26.27;42.08
71194;BME280;58903;47.210;8.618;2023-04-22T05:13:52;93653.63;;;26.27;41.54
71194;BME280;58903;47.210;8.618;2023-04-22T05:16:29;93666.47;;;26.25;41.57
71194;BME280;58903;47.210;8.618;2023-04-22T05:19:08;93665.19;;;26.26;41.23
71194;BME280;58903;47.210;8.618;2023-04-22T05:21:45;93658.94;;;26.25;41.44
71194;BME280;58903;47.210;8.618;2023-04-22T05:24:13;93659.34;;;26.29;41.00
71194;BME280;58903;47.210;8.618;2023-04-22T05:26:53;93674.94;;;26.27;41.72
71194;BME280;58903;47.210;8.618;2023-04-22T05:29:20;93674.72;;;26.25;42.02
71194;BME280;58903;47.210;8.618;2023-04-22T05:32:20;93680.44;;;26.27;41.04
71194;BME280;58903;47.210;8.618;2023-04-22T05:34:57;93664.97;;;26.24;41.24
71194;BME280;58903;47.210;8.618;2023-04-22T05:38:01;93663.38;;;26.28;41.78
71194;BME280;58903;47.210;8.618;2023-04-22T05:43:41;93669.22;;;26.25;41.67
71194;BME280;58903;47.210;8.618;2023-04-22T05:46:09;93678.75;;;26.24;41.67
71194;BME280;58903;47.210;8.618;2023-04-22T05:48:46;93670.28;;;26.22;41.76
71194;BME280;58903;47.210;8.618;2023-04-22T05:51:25;93669.22;;;26.25;41.16
71194;BME280;58903;47.210;8.618;2023-04-22T05:54:03;93671.09;;;26.30;41.70
71194;BME280;58903;47.210;8.618;2023-04-22T05:56:30;93682.13;;;26.30;41.44
71194;BME280;58903;47.210;8.618;2023-04-22T05:58:56;93679.59;;;26.32;41.12
71194;BME280;58903;47.210;8.618;2023-04-22T06:01:31;93681.41;;;26.29;40.98
71194;BME280;58903;47.210;8.618;2023-04-22T06:03:57;93682.78;;;26.23;40.72
71194;BME280;58903;47.210;8.618;2023-04-22T06:06:24;93680.25;;;26.25;40.85
71194;BME280;58903;47.210;8.618;2023-04-22T06:08:59;93679.50;;;26.24;40.71
71194;BME280;58903;47.210;8.618;2023-04-22T06:11:30;93684.88;;;26.30;40.83
71194;BME280;58903;47.210;8.618;2023-04-22T06:13:56;93684.88;;;26.30;40.92
71194;BME280;58903;47.210;8.618;2023-04-22T06:16:33;93681.63;;;26.31;41.13
71194;BME280;58903;47.210;8.618;2023-04-22T06:18:59;93677.06;;;26.34;41.01
71194;BME280;58903;47.210;8.618;2023-04-22T06:21:26;93691.06;;;26.36;41.21
71194;BME280;58903;47.210;8.618;2023-04-22T06:24:00;93683.69;;;26.38;40.75
71194;BME280;58903;47.210;8.618;2023-04-22T06:26:27;93678.72;;;26.37;40.92
71194;BME280;58903;47.210;8.618;2023-04-22T06:28:53;93685.94;;;26.40;41.30
71194;BME280;58903;47.210;8.618;2023-04-22T06:31:28;93687.41;;;26.41;40.93
71194;BME280;58903;47.210;8.618;2023-04-22T06:33:59;93690.19;;;26.41;40.76
71194;BME280;58903;47.210;8.618;2023-04-22T06:36:25;93686.34;;;26.44;40.41
71194;BME280;58903;47.210;8.618;2023-04-22T06:39:03;93690.38;;;26.43;41.20
71194;BME280;58903;47.210;8.618;2023-04-22T06:41:33;93698.25;;;26.39;40.93
71194;BME280;58903;47.210;8.618;2023-04-22T06:44:08;93706.09;;;26.35;41.24
71194;BME280;58903;47.210;8.618;2023-04-22T06:49:57;93699.94;;;26.42;40.76
71194;BME280;58903;47.210;8.618;2023-04-22T06:52:23;93696.97;;;26.40;41.14
71194;BME280;58903;47.210;8.618;2023-04-22T06:54:50;93694.97;;;26.40;40.60
71194;BME280;58903;47.210;8.618;2023-04-22T06:57:20;93696.66;;;26.43;41.07
71194;BME280;58903;47.210;8.618;2023-04-22T06:59:53;93702.38;;;26.45;40.89
71194;BME280;58903;47.210;8.618;2023-04-22T07:02:29;93695.91;;;26.43;41.19
71194;BME280;58903;47.210;8.618;2023-04-22T07:04:55;93700.16;;;26.44;40.95
71194;BME280;58903;47.210;8.618;2023-04-22T07:07:28;93703.66;;;26.44;41.16
71194;BME280;58903;47.210;8.618;2023-04-22T07:09:53;93706.63;;;26.46;41.43
71194;BME280;58903;47.210;8.618;2023-04-22T07:12:22;93705.88;;;26.46;40.88
71194;BME280;58903;47.210;8.618;2023-04-22T07:14:53;93700.78;;;26.50;40.69
71194;BME280;58903;47.210;8.618;2023-04-22T07:17:23;93704.06;;;26.48;41.10
71194;BME280;58903;47.210;8.618;2023-04-22T07:19:51;93705.22;;;26.53;41.58
71194;BME280;58903;47.210;8.618;2023-04-22T07:22:20;93703.31;;;26.48;40.82
71194;BME280;58903;47.210;8.618;2023-04-22T07:24:55;93703.53;;;26.50;41.21
71194;BME280;58903;47.210;8.618;2023-04-22T07:27:23;93709.78;;;26.50;41.53
71194;BME280;58903;47.210;8.618;2023-04-22T07:29:56;93701.50;;;26.50;40.70
71194;BME280;58903;47.210;8.618;2023-04-22T07:32:25;93709.59;;;26.48;40.91
71194;BME280;58903;47.210;8.618;2023-04-22T07:34:51;93701.94;;;26.41;41.23
71194;BME280;58903;47.210;8.618;2023-04-22T07:37:20;93710.63;;;26.45;41.42
71194;BME280;58903;47.210;8.618;2023-04-22T07:39:47;93707.38;;;26.47;41.17
71194;BME280;58903;47.210;8.618;2023-04-22T07:42:21;93709.59;;;26.48;41.16
71194;BME280;58903;47.210;8.618;2023-04-22T07:44:47;93708.09;;;26.47;40.99
71194;BME280;58903;47.210;8.618;2023-04-22T07:47:45;93710.53;;;26.51;40.77
71194;BME280;58903;47.210;8.618;2023-04-22T07:50:14;93705.03;;;26.51;40.58
71194;BME280;58903;47.210;8.618;2023-04-22T07:52:46;93716.56;;;26.49;41.10
71194;BME280;58903;47.210;8.618;2023-04-22T07:55:15;93717.31;;;26.50;41.17
71194;BME280;58903;47.210;8.618;2023-04-22T07:57:47;93710.13;;;26.47;40.95
71194;BME280;58903;47.210;8.618;2023-04-22T08:00:17;93722.84;;;26.50;40.92
71194;BME280;58903;47.210;8.618;2023-04-22T08:02:45;93722.28;;;26.51;40.82
71194;BME280;58903;47.210;8.618;2023-04-22T08:05:12;93725.38;;;26.48;40.49
71194;BME280;58903;47.210;8.618;2023-04-22T08:07:44;93723.91;;;26.47;40.72
71194;BME280;58903;47.210;8.618;2023-04-22T08:10:20;93716.91;;;26.46;41.24
71194;BME280;58903;47.210;8.618;2023-04-22T08:12:46;93724.97;;;26.44;40.94
71194;BME280;58903;47.210;8.618;2023-04-22T08:15:16;93727.72;;;26.44;41.47
71194;BME280;58903;47.210;8.618;2023-04-22T08:17:42;93728.78;;;26.41;41.04
71194;BME280;58903;47.210;8.618;2023-04-22T08:20:20;93731.31;;;26.39;41.63
71194;BME280;58903;47.210;8.618;2023-04-22T08:22:49;93730.06;;;26.40;41.77
71194;BME280;58903;47.210;8.618;2023-04-22T08:25:46;93726.75;;;26.41;41.76
71194;BME280;58903;47.210;8.618;2023-04-22T08:28:26;93726.03;;;26.41;41.12
71194;BME280;58903;47.210;8.618;2023-04-22T08:31:01;93726.75;;;26.41;41.29
71194;BME280;58903;47.210;8.618;2023-04-22T08:33:42;93728.25;;;26.42;41.10
71194;BME280;58903;47.210;8.618;2023-04-22T08:36:22;93715.75;;;26.41;41.77
71194;BME280;58903;47.210;8.618;2023-04-22T08:39:27;93721.66;;;26.45;41.74
71194;BME280;58903;47.210;8.618;2023-04-22T08:42:04;93722.22;;;26.44;41.17
71194;BME280;58903;47.210;8.618;2023-04-22T08:44:47;93721.78;;;26.40;41.52
71194;BME280;58903;47.210;8.618;2023-04-22T08:47:27;93718.81;;;26.38;41.78
71194;BME280;58903;47.210;8.618;2023-04-22T08:50:27;93725.59;;;26.37;42.17
71194;BME280;58903;47.210;8.618;2023-04-22T08:53:04;93723.59;;;26.37;41.51
71194;BME280;58903;47.210;8.618;2023-04-22T08:55:59;93722.53;;;26.40;41.68
71194;BME280;58903;47.210;8.618;2023-04-22T08:58:27;93717.22;;;26.42;41.68
71194;BME280;58903;47.210;8.618;2023-04-22T09:01:25;93722.75;;;26.42;41.76
71194;BME280;58903;47.210;8.618;2023-04-22T09:03:58;93719.44;;;26.44;41.97
71194;BME280;58903;47.210;8.618;2023-04-22T09:06:55;93717.84;;;26.48;41.69
71194;BME280;58903;47.210;8.618;2023-04-22T09:09:23;93720.47;;;26.54;41.15
71194;BME280;58903;47.210;8.618;2023-04-22T09:11:51;93705.22;;;26.53;41.32
71194;BME280;58903;47.210;8.618;2023-04-22T09:14:18;93702.88;;;26.57;40.53
71194;BME280;58903;47.210;8.618;2023-04-22T09:16:46;93695.34;;;26.57;41.27
71194;BME280;58903;47.210;8.618;2023-04-22T09:19:45;93690.25;;;26.61;41.21
71194;BME280;58903;47.210;8.618;2023-04-22T09:22:21;93689.50;;;26.61;40.37
71194;BME280;58903;47.210;8.618;2023-04-22T09:24:56;93691.00;;;26.62;40.54
71194;BME280;58903;47.210;8.618;2023-04-22T09:27:36;93676.88;;;26.65;40.38
71194;BME280;58903;47.210;8.618;2023-04-22T09:30:24;93676.72;;;26.71;40.35
71194;BME280;58903;47.210;8.618;2023-04-22T09:33:03;93681.97;;;26.74;40.84
71194;BME280;58903;47.210;8.618;2023-04-22T09:35:47;93673.69;;;26.74;40.06
71194;BME280;58903;47.210;8.618;2023-04-22T09:38:14;93667.44;;;26.74;40.71
71194;BME280;58903;47.210;8.618;2023-04-22T09:41:10;93669.84;;;26.77;40.05
71194;BME280;58903;47.210;8.618;2023-04-22T09:43:42;93670.38;;;26.76;40.51
71194;BME280;58903;47.210;8.618;2023-04-22T09:46:29;93670.59;;;26.78;40.50
71194;BME280;58903;47.210;8.618;2023-04-22T09:48:58;93668.03;;;26.80;40.81
71194;BME280;58903;47.210;8.618;2023-04-22T09:51:30;93664.31;;;26.77;40.58
71194;BME280;58903;47.210;8.618;2023-04-22T09:54:05;93662.53;;;26.80;40.34
71194;BME280;58903;47.210;8.618;2023-04-22T09:56:44;93665.28;;;26.80;40.27
71194;BME280;58903;47.210;8.618;2023-04-22T09:59:11;93661.81;;;26.79;40.48
71194;BME280;58903;47.210;8.618;2023-04-22T10:01:41;93655.75;;;26.81;40.40
71194;BME280;58903;47.210;8.618;2023-04-22T10:04:27;93661.47;;;26.83;40.17
71194;BME280;58903;47.210;8.618;2023-04-22T10:06:54;93660.16;;;26.84;40.64
71194;BME280;58903;47.210;8.618;2023-04-22T10:09:23;93669.41;;;26.86;40.31
71194;BME280;58903;47.210;8.618;2023-04-22T10:12:18;93672.16;;;26.86;40.09
71194;BME280;58903;47.210;8.618;2023-04-22T10:14:46;93672.91;;;26.87;40.30
71194;BME280;58903;47.210;8.618;2023-04-22T10:17:14;93661.13;;;26.86;40.56
71194;BME280;58903;47.210;8.618;2023-04-22T10:19:57;93658.91;;;26.85;40.78
71194;BME280;58903;47.210;8.618;2023-04-22T10:22:54;93666.31;;;26.90;39.87
71194;BME280;58903;47.210;8.618;2023-04-22T10:25:38;93660.06;;;26.89;39.59
71194;BME280;58903;47.210;8.618;2023-04-22T10:28:42;93650.69;;;26.92;39.80
71194;BME280;58903;47.210;8.618;2023-04-22T10:31:24;93645.72;;;26.91;39.94
71194;BME280;58903;47.210;8.618;2023-04-22T10:34:08;93636.16;;;26.92;40.37
71194;BME280;58903;47.210;8.618;2023-04-22T10:37:05;93627.69;;;26.90;40.12
71194;BME280;58903;47.210;8.618;2023-04-22T10:39:32;93627.13;;;26.92;39.75
71194;BME280;58903;47.210;8.618;2023-04-22T10:44:29;93633.22;;;26.90;39.75
71194;BME280;58903;47.210;8.618;2023-04-22T10:47:27;93633.00;;;26.88;39.77
71194;BME280;58903;47.210;8.618;2023-04-22T10:50:18;93637.22;;;26.89;39.80
71194;BME280;58903;47.210;8.618;2023-04-22T10:52:55;93648.28;;;26.89;39.66
71194;BME280;58903;47.210;8.618;2023-04-22T10:55:50;93662.59;;;26.87;39.57
71194;BME280;58903;47.210;8.618;2023-04-22T10:58:23;93659.09;;;26.87;39.75
71194;BME280;58903;47.210;8.618;2023-04-22T11:01:14;93664.06;;;26.88;40.09
71194;BME280;58903;47.210;8.618;2023-04-22T11:03:52;93664.81;;;26.89;39.92
71194;BME280;58903;47.210;8.618;2023-04-22T11:06:23;93672.91;;;26.87;39.55
71194;BME280;58903;47.210;8.618;2023-04-22T11:09:06;93672.69;;;26.85;39.66
71194;BME280;58903;47.210;8.618;2023-04-22T11:11:33;93670.88;;;26.87;39.62
71194;BME280;58903;47.210;8.618;2023-04-22T11:14:10;93677.34;;;26.90;40.05
71194;BME280;58903;47.210;8.618;2023-04-22T11:16:45;93680.63;;;26.88;40.01
71194;BME280;58903;47.210;8.618;2023-04-22T11:19:12;93678.41;;;26.87;39.85
71194;BME280;58903;47.210;8.618;2023-04-22T11:21:52;93684.13;;;26.89;39.92
71194;BME280;58903;47.210;8.618;2023-04-22T11:24:26;93676.63;;;26.89;39.42
71194;BME280;58903;47.210;8.618;2023-04-22T11:27:06;93685.09;;;26.92;40.27
71194;BME280;58903;47.210;8.618;2023-04-22T11:29:33;93687.84;;;26.92;39.97
71194;BME280;58903;47.210;8.618;2023-04-22T11:32:10;93689.56;;;26.95;39.50
71194;BME280;58903;47.210;8.618;2023-04-22T11:34:50;93689.00;;;26.96;39.61
71194;BME280;58903;47.210;8.618;2023-04-22T11:37:21;93694.53;;;26.96;39.84
71194;BME280;58903;47.210;8.618;2023-04-22T11:39:51;93692.50;;;26.97;39.64
71194;BME280;58903;47.210;8.618;2023-04-22T11:42:35;93687.19;;;26.99;39.82
71194;BME280;58903;47.210;8.618;2023-04-22T11:45:12;93690.69;;;26.99;39.71
71194;BME280;58903;47.210;8.618;2023-04-22T11:47:40;93697.16;;;27.02;39.38
71194;BME280;58903;47.210;8.618;2023-04-22T11:50:09;93692.56;;;27.04;39.58
71194;BME280;58903;47.210;8.618;2023-04-22T11:53:19;93688.56;;;27.05;39.24
71194;BME280;58903;47.210;8.618;2023-04-22T11:55:50;93694.06;;;27.05;38.93
71194;BME280;58903;47.210;8.618;2023-04-22T11:58:29;93701.59;;;27.05;39.26
71194;BME280;58903;47.210;8.618;2023-04-22T12:00:57;93691.81;;;27.04;39.09
71194;BME280;58903;47.210;8.618;2023-04-22T12:03:26;93703.06;;;27.06;39.25
71194;BME280;58903;47.210;8.618;2023-04-22T12:06:07;93690.56;;;27.05;38.86
71194;BME280;58903;47.210;8.618;2023-04-22T12:08:36;93692.03;;;27.06;39.23
71194;BME280;58903;47.210;8.618;2023-04-22T12:11:33;93697.22;;;27.09;39.08
71194;BME280;58903;47.210;8.618;2023-04-22T12:14:10;93693.94;;;27.11;39.08
71194;BME280;58903;47.210;8.618;2023-04-22T12:16:40;93700.75;;;27.10;39.24
71194;BME280;58903;47.210;8.618;2023-04-22T12:19:10;93691.16;;;27.11;39.01
71194;BME280;58903;47.210;8.618;2023-04-22T12:21:37;93693.72;;;27.09;39.09
71194;BME280;58903;47.210;8.618;2023-04-22T12:24:09;93690.41;;;27.10;39.25
71194;BME280;58903;47.210;8.618;2023-04-22T12:26:36;93682.13;;;27.10;39.40
71194;BME280;58903;47.210;8.618;2023-04-22T12:29:32;93680.88;;;27.11;39.23
71194;BME280;58903;47.210;8.618;2023-04-22T12:32:00;93677.16;;;27.09;39.06
71194;BME280;58903;47.210;8.618;2023-04-22T12:34:56;93677.38;;;27.11;39.08
71194;BME280;58903;47.210;8.618;2023-04-22T12:40:42;93684.38;;;27.12;39.31
71194;BME280;58903;47.210;8.618;2023-04-22T12:43:08;93676.63;;;27.10;38.73
71194;BME280;58903;47.210;8.618;2023-04-22T12:45:43;93678.72;;;27.17;39.18
71194;BME280;58903;47.210;8.618;2023-04-22T12:48:11;93679.47;;;27.18;39.28
71194;BME280;58903;47.210;8.618;2023-04-22T12:50:46;93672.13;;;27.20;39.01
71194;BME280;58903;47.210;8.618;2023-04-22T12:53:14;93675.28;;;27.24;39.03
71194;BME280;58903;47.210;8.618;2023-04-22T12:56:00;93678.06;;;27.24;39.28
71194;BME280;58903;47.210;8.618;2023-04-22T12:58:56;93683.03;;;27.26;39.39
71194;BME280;58903;47.210;8.618;2023-04-22T13:01:29;93680.25;;;27.26;39.38
71194;BME280;58903;47.210;8.618;2023-04-22T13:04:11;93679.31;;;27.23;39.45
71194;BME280;58903;47.210;8.618;2023-04-22T13:06:40;93681.75;;;27.27;38.73
71194;BME280;58903;47.210;8.618;2023-04-22T13:09:37;93689.69;;;27.30;39.34
71194;BME280;58903;47.210;8.618;2023-04-22T13:12:17;93685.66;;;27.31;39.10
71194;BME280;58903;47.210;8.618;2023-04-22T13:14:43;93678.66;;;27.30;39.17
71194;BME280;58903;47.210;8.618;2023-04-22T13:17:20;93684.38;;;27.32;39.12
71194;BME280;58903;47.210;8.618;2023-04-22T13:19:56;93679.94;;;27.29;39.26
71194;BME280;58903;47.210;8.618;2023-04-22T13:22:39;93671.66;;;27.29;39.27
71194;BME280;58903;47.210;8.618;2023-04-22T13:25:25;93675.69;;;27.28;39.34
71194;BME280;58903;47.210;8.618;2023-04-22T13:28:01;93672.94;;;27.28;38.82
71194;BME280;58903;47.210;8.618;2023-04-22T13:30:29;93668.69;;;27.27;39.42
71194;BME280;58903;47.210;8.618;2023-04-22T13:32:55;93678.25;;;27.26;38.85
71194;BME280;58903;47.210;8.618;2023-04-22T13:35:35;93676.25;;;27.27;38.51
71194;BME280;58903;47.210;8.618;2023-04-22T13:38:06;93676.75;;;27.25;38.57
71194;BME280;58903;47.210;8.618;2023-04-22T13:40:35;93678.78;;;27.25;38.93
71194;BME280;58903;47.210;8.618;2023-04-22T13:43:01;93671.22;;;27.25;38.87
71194;BME280;58903;47.210;8.618;2023-04-22T13:45:36;93668.47;;;27.25;38.63
71194;BME280;58903;47.210;8.618;2023-04-22T13:48:12;93677.50;;;27.26;37.79
71194;BME280;58903;47.210;8.618;2023-04-22T13:50:47;93680.81;;;27.24;38.05
71194;BME280;58903;47.210;8.618;2023-04-22T13:53:22;93680.81;;;27.24;37.74
71194;BME280;58903;47.210;8.618;2023-04-22T13:55:55;93672.53;;;27.24;37.88
71194;BME280;58903;47.210;8.618;2023-04-22T13:58:48;93685.03;;;27.25;37.50